createdAt,value
2023-03-10T00:01:17.440Z,100.00
2023-03-10T00:03:46.342Z,100.00
2023-03-10T00:06:16.051Z,100.00
2023-03-10T00:08:44.668Z,100.00
2023-03-10T00:11:14.334Z,100.00
2023-03-10T00:13:42.940Z,100.00
2023-03-10T00:16:17.668Z,97.64
2023-03-10T00:18:46.324Z,97.24
2023-03-10T00:21:16.606Z,97.43
2023-03-10T00:23:44.394Z,95.83
2023-03-10T00:26:16.002Z,94.06
2023-03-10T00:28:44.054Z,95.69
2023-03-10T00:31:13.461Z,95.94
2023-03-10T00:33:41.283Z,97.46
2023-03-10T00:36:10.811Z,99.26
2023-03-10T00:38:39.659Z,99.63
2023-03-10T00:41:09.146Z,100.00
2023-03-10T00:43:38.386Z,100.00
2023-03-10T00:46:07.123Z,100.00
2023-03-10T00:48:35.865Z,99.79
2023-03-10T00:51:04.612Z,98.38
2023-03-10T00:53:33.313Z,96.22
2023-03-10T00:56:03.088Z,97.90
2023-03-10T00:58:32.459Z,98.62
2023-03-10T01:01:02.574Z,98.58
2023-03-10T01:03:30.663Z,99.29
2023-03-10T01:05:59.072Z,95.59
2023-03-10T01:08:26.823Z,98.30
2023-03-10T01:10:54.553Z,97.08
2023-03-10T01:13:22.442Z,95.33
2023-03-10T01:15:51.099Z,95.31
2023-03-10T01:18:21.520Z,94.97
2023-03-10T01:20:49.471Z,94.22
2023-03-10T01:23:19.412Z,95.19
2023-03-10T01:25:47.319Z,94.83
2023-03-10T01:28:15.225Z,94.46
2023-03-10T01:30:43.371Z,94.79
2023-03-10T01:33:12.262Z,93.46
2023-03-10T01:35:42.050Z,93.14
2023-03-10T01:38:10.492Z,93.12
2023-03-10T01:40:39.144Z,93.08
2023-03-10T01:43:32.095Z,94.51
2023-03-10T01:46:40.639Z,94.98
2023-03-10T01:49:15.354Z,94.22
2023-03-10T01:51:48.791Z,95.97
2023-03-10T01:54:19.403Z,96.73
2023-03-10T01:56:48.976Z,95.15
2023-03-10T01:59:16.960Z,94.05
2023-03-10T02:01:44.887Z,94.19
2023-03-10T02:04:18.792Z,95.89
2023-03-10T02:06:49.279Z,93.97
2023-03-10T02:09:18.357Z,93.43
2023-03-10T02:11:48.138Z,94.97
2023-03-10T02:14:16.428Z,94.14
2023-03-10T02:16:44.392Z,93.51
2023-03-10T02:19:24.286Z,93.74
2023-03-10T02:22:02.345Z,91.15
2023-03-10T02:24:36.967Z,91.30
2023-03-10T02:27:13.959Z,93.69
2023-03-10T02:29:58.440Z,93.83
2023-03-10T02:32:29.050Z,92.71
2023-03-10T02:34:56.919Z,94.25
2023-03-10T02:37:26.645Z,95.47
2023-03-10T02:39:54.682Z,94.57
2023-03-10T02:42:26.423Z,95.16
2023-03-10T02:44:54.999Z,94.32
2023-03-10T02:47:22.797Z,94.78
2023-03-10T02:49:50.660Z,95.80
2023-03-10T02:52:27.767Z,97.12
2023-03-10T02:54:55.458Z,96.00
2023-03-10T02:57:24.522Z,99.08
2023-03-10T02:59:52.268Z,96.80
2023-03-10T03:02:20.094Z,98.54
2023-03-10T03:04:47.828Z,99.39
2023-03-10T03:07:15.522Z,98.39
2023-03-10T03:09:43.248Z,99.22
2023-03-10T03:12:11.250Z,100.00
2023-03-10T03:14:40.364Z,100.00
2023-03-10T03:17:08.109Z,100.00
2023-03-10T03:19:35.855Z,100.00
2023-03-10T03:22:03.609Z,100.00
2023-03-10T03:24:32.098Z,100.00
2023-03-10T03:26:59.963Z,100.00
2023-03-10T03:29:27.751Z,100.00
2023-03-10T03:31:56.879Z,100.00
2023-03-10T03:34:24.657Z,100.00
2023-03-10T03:36:52.472Z,100.00
2023-03-10T03:39:20.297Z,100.00
2023-03-10T03:41:49.058Z,100.00
2023-03-10T03:44:16.766Z,100.00
2023-03-10T03:46:44.550Z,100.00
2023-03-10T03:49:13.625Z,100.00
2023-03-10T03:51:41.761Z,100.00
2023-03-10T03:54:09.522Z,100.00
2023-03-10T03:56:37.258Z,100.00
2023-03-10T03:59:05.167Z,100.00
2023-03-10T04:01:33.039Z,100.00
2023-03-10T04:04:00.790Z,99.59
2023-03-10T04:06:29.913Z,98.62
2023-03-10T04:08:57.650Z,98.20
2023-03-10T04:11:25.401Z,98.66
2023-03-10T04:13:53.587Z,95.74
2023-03-10T04:16:21.428Z,97.86
2023-03-10T04:18:49.284Z,98.10
2023-03-10T04:21:18.043Z,95.56
2023-03-10T04:23:47.195Z,95.57
2023-03-10T04:26:15.282Z,98.03
2023-03-10T04:28:43.077Z,95.10
2023-03-10T04:31:15.752Z,97.30
2023-03-10T04:33:43.720Z,98.67
2023-03-10T04:36:11.810Z,100.00
2023-03-10T04:38:40.728Z,100.00
2023-03-10T04:41:09.875Z,100.00
2023-03-10T04:43:37.631Z,100.00
2023-03-10T04:46:06.132Z,100.00
2023-03-10T04:48:33.964Z,100.00
2023-03-10T04:51:04.010Z,100.00
2023-03-10T04:53:33.166Z,100.00
2023-03-10T04:56:01.027Z,97.33
2023-03-10T04:58:30.141Z,95.30
2023-03-10T05:01:03.179Z,92.40
2023-03-10T05:03:31.143Z,90.82
2023-03-10T05:05:59.101Z,89.94
2023-03-10T05:08:26.857Z,90.04
2023-03-10T05:10:54.628Z,89.98
2023-03-10T05:13:22.372Z,92.51
2023-03-10T05:15:51.488Z,91.75
2023-03-10T05:18:19.566Z,91.63
2023-03-10T05:20:53.845Z,92.25
2023-03-10T05:23:21.789Z,91.99
2023-03-10T05:25:49.823Z,92.02
2023-03-10T05:28:17.773Z,89.57
2023-03-10T05:30:45.744Z,89.57
2023-03-10T05:33:14.808Z,88.88
2023-03-10T05:35:42.658Z,87.50
2023-03-10T05:38:10.426Z,87.63
2023-03-10T05:40:38.148Z,85.54
2023-03-10T05:43:05.938Z,85.37
2023-03-10T05:45:33.784Z,85.59
2023-03-10T05:48:01.606Z,84.63
2023-03-10T05:50:30.696Z,83.35
2023-03-10T05:52:58.551Z,83.09
2023-03-10T05:55:28.659Z,81.93
2023-03-10T05:57:56.484Z,84.26
2023-03-10T06:00:24.773Z,84.33
2023-03-10T06:02:52.570Z,85.56
2023-03-10T06:05:20.416Z,86.46
2023-03-10T06:07:49.549Z,88.69
2023-03-10T06:10:17.349Z,87.63
2023-03-10T06:12:45.065Z,85.34
2023-03-10T06:15:13.071Z,85.99
2023-03-10T06:17:41.380Z,86.54
2023-03-10T06:20:09.865Z,85.50
2023-03-10T06:22:37.633Z,84.69
2023-03-10T06:25:07.855Z,86.30
2023-03-10T06:27:35.698Z,86.17
2023-03-10T06:30:03.532Z,85.71
2023-03-10T06:32:31.545Z,85.69
2023-03-10T06:35:00.290Z,83.59
2023-03-10T06:37:28.062Z,84.21
2023-03-10T06:39:55.813Z,82.24
2023-03-10T06:42:24.914Z,82.34
2023-03-10T06:44:55.537Z,81.56
2023-03-10T06:47:23.354Z,80.05
2023-03-10T06:49:51.141Z,80.46
2023-03-10T06:52:18.928Z,79.81
2023-03-10T06:54:46.688Z,80.02
2023-03-10T06:57:14.458Z,77.72
2023-03-10T06:59:43.661Z,77.26
2023-03-10T07:02:12.649Z,78.94
2023-03-10T07:04:41.296Z,78.13
2023-03-10T07:07:09.091Z,78.11
2023-03-10T07:09:36.841Z,78.65
2023-03-10T07:12:04.965Z,80.17
2023-03-10T07:14:32.760Z,79.12
2023-03-10T07:17:01.880Z,79.45
2023-03-10T07:19:29.708Z,78.80
2023-03-10T07:21:57.405Z,79.16
2023-03-10T07:24:25.237Z,78.57
2023-03-10T07:26:53.135Z,78.72
2023-03-10T07:29:20.888Z,76.06
2023-03-10T07:31:48.755Z,75.74
2023-03-10T07:34:17.840Z,75.01
2023-03-10T07:36:45.551Z,74.44
2023-03-10T07:39:13.291Z,73.54
2023-03-10T07:41:41.105Z,73.83
2023-03-10T07:44:08.817Z,72.80
2023-03-10T07:46:36.587Z,72.17
2023-03-10T07:49:05.042Z,73.45
2023-03-10T07:51:34.497Z,73.70
2023-03-10T07:54:02.336Z,72.55
2023-03-10T07:56:30.160Z,74.28
2023-03-10T07:58:59.742Z,73.53
2023-03-10T08:01:27.565Z,74.14
2023-03-10T08:03:57.942Z,73.93
2023-03-10T08:06:28.169Z,73.36
2023-03-10T08:08:58.048Z,74.06
2023-03-10T08:11:27.072Z,74.85
2023-03-10T08:13:55.030Z,74.69
2023-03-10T08:16:23.788Z,74.11
2023-03-10T08:18:53.351Z,73.93
2023-03-10T08:21:21.273Z,74.09
2023-03-10T08:23:49.067Z,74.98
2023-03-10T08:26:20.068Z,74.57
2023-03-10T08:28:49.052Z,73.55
2023-03-10T08:31:19.251Z,74.81
2023-03-10T08:33:47.539Z,73.84
2023-03-10T08:36:17.223Z,72.94
2023-03-10T08:38:45.491Z,74.59
2023-03-10T08:41:15.837Z,73.83
2023-03-10T08:43:48.908Z,72.89
2023-03-10T08:46:18.195Z,72.82
2023-03-10T08:48:46.425Z,72.22
2023-03-10T08:51:16.087Z,71.65
2023-03-10T08:53:44.596Z,71.72
2023-03-10T08:56:12.372Z,71.80
2023-03-10T08:58:40.558Z,70.44
2023-03-10T09:01:09.686Z,70.54
2023-03-10T09:03:37.844Z,72.16
2023-03-10T09:06:05.852Z,70.34
2023-03-10T09:08:33.778Z,69.00
2023-03-10T09:11:02.109Z,68.77
2023-03-10T09:13:29.932Z,68.38
2023-03-10T09:15:57.830Z,67.20
2023-03-10T09:18:27.008Z,67.88
2023-03-10T09:20:54.719Z,66.85
2023-03-10T09:23:22.450Z,67.47
2023-03-10T09:25:50.221Z,67.73
2023-03-10T09:28:18.838Z,68.34
2023-03-10T09:30:48.154Z,68.16
2023-03-10T09:33:18.199Z,67.57
2023-03-10T09:36:05.036Z,65.60
2023-03-10T09:38:33.543Z,66.53
2023-03-10T09:41:15.036Z,65.71
2023-03-10T09:43:50.551Z,66.87
2023-03-10T09:46:24.177Z,66.57
2023-03-10T09:48:56.242Z,66.36
2023-03-10T09:51:28.552Z,65.42
2023-03-10T09:54:06.379Z,66.04
2023-03-10T09:56:36.983Z,64.15
2023-03-10T09:59:11.152Z,66.64
2023-03-10T10:01:44.224Z,66.90
2023-03-10T10:04:14.581Z,64.70
2023-03-10T10:06:47.215Z,65.28
2023-03-10T10:09:28.974Z,64.92
2023-03-10T10:11:57.081Z,64.80
2023-03-10T10:14:31.018Z,64.64
2023-03-10T10:17:07.326Z,63.99
2023-03-10T10:19:37.386Z,64.65
2023-03-10T10:22:12.989Z,65.08
2023-03-10T10:24:40.744Z,67.98
2023-03-10T10:27:08.555Z,67.95
2023-03-10T10:29:38.082Z,69.26
2023-03-10T10:32:08.925Z,68.22
2023-03-10T10:34:38.508Z,67.51
2023-03-10T10:37:22.236Z,66.00
2023-03-10T10:39:51.174Z,64.56
2023-03-10T10:42:24.212Z,65.10
2023-03-10T10:44:53.969Z,65.95
2023-03-10T10:47:30.127Z,65.61
2023-03-10T10:50:20.497Z,66.40
2023-03-10T10:52:53.092Z,63.52
2023-03-10T10:55:28.358Z,62.06
2023-03-10T10:58:01.315Z,63.56
2023-03-10T11:00:30.789Z,65.21
2023-03-10T11:02:58.904Z,63.56
2023-03-10T11:05:35.920Z,62.10
2023-03-10T11:08:21.051Z,60.77
2023-03-10T11:10:54.799Z,61.69
2023-03-10T11:13:27.719Z,60.28
2023-03-10T11:16:01.657Z,59.15
2023-03-10T11:18:34.666Z,59.38
2023-03-10T11:21:08.125Z,58.93
2023-03-10T11:23:41.929Z,59.13
2023-03-10T11:26:22.530Z,58.73
2023-03-10T11:28:54.182Z,57.97
2023-03-10T11:31:38.236Z,61.27
2023-03-10T11:34:20.068Z,61.19
2023-03-10T11:36:57.117Z,59.45
2023-03-10T11:39:34.022Z,57.47
2023-03-10T11:42:07.170Z,59.01
2023-03-10T11:44:40.174Z,60.17
2023-03-10T11:47:16.940Z,59.95
2023-03-10T11:49:51.753Z,58.25
2023-03-10T11:52:23.421Z,58.70
2023-03-10T11:55:01.577Z,57.75
2023-03-10T11:57:35.628Z,59.13
2023-03-10T12:00:10.712Z,59.25
2023-03-10T12:02:46.141Z,59.53
2023-03-10T12:05:20.948Z,59.29
2023-03-10T12:07:52.400Z,59.01
2023-03-10T12:10:24.128Z,58.74
2023-03-10T12:12:53.622Z,58.93
2023-03-10T12:15:23.866Z,59.44
2023-03-10T12:17:53.671Z,59.04
2023-03-10T12:20:28.239Z,59.24
2023-03-10T12:22:57.118Z,58.38
2023-03-10T12:25:46.843Z,57.96
2023-03-10T12:28:27.273Z,57.57
2023-03-10T12:30:57.525Z,56.85
2023-03-10T12:33:47.284Z,58.00
2023-03-10T12:36:19.555Z,55.80
2023-03-10T12:38:49.900Z,55.22
2023-03-10T12:41:53.212Z,56.21
2023-03-10T12:44:45.772Z,55.73
2023-03-10T12:47:20.886Z,55.94
2023-03-10T12:49:54.043Z,55.75
2023-03-10T12:52:29.949Z,55.29
2023-03-10T12:55:19.006Z,56.78
2023-03-10T12:57:55.513Z,54.23
2023-03-10T13:00:34.104Z,54.51
2023-03-10T13:03:05.851Z,55.71
2023-03-10T13:05:36.376Z,56.68
2023-03-10T13:08:13.161Z,55.95
2023-03-10T13:10:41.165Z,55.36
2023-03-10T13:13:10.252Z,56.08
2023-03-10T13:15:39.312Z,56.42
2023-03-10T13:18:18.246Z,56.15
2023-03-10T13:20:47.298Z,55.97
2023-03-10T13:23:22.739Z,56.94
2023-03-10T13:25:57.772Z,56.35
2023-03-10T13:28:26.660Z,56.18
2023-03-10T13:31:09.862Z,56.63
2023-03-10T13:33:50.125Z,56.82
2023-03-10T13:36:41.526Z,57.59
2023-03-10T13:39:16.581Z,57.15
2023-03-10T13:41:46.967Z,57.20
2023-03-10T13:44:19.999Z,56.83
2023-03-10T13:46:51.952Z,56.36
2023-03-10T13:49:22.329Z,57.32
2023-03-10T13:51:54.487Z,58.27
2023-03-10T13:54:24.615Z,55.96
2023-03-10T13:56:53.804Z,55.58
2023-03-10T13:59:24.335Z,56.48
2023-03-10T14:01:55.750Z,56.99
2023-03-10T14:04:42.975Z,57.11
2023-03-10T14:07:13.085Z,56.95
2023-03-10T14:09:41.381Z,58.84
2023-03-10T14:12:29.760Z,59.07
2023-03-10T14:15:10.741Z,58.41
2023-03-10T14:17:41.574Z,57.96
2023-03-10T14:20:10.975Z,59.13
2023-03-10T14:22:41.383Z,61.32
2023-03-10T14:25:13.913Z,60.42
2023-03-10T14:27:44.261Z,61.81
2023-03-10T14:30:19.642Z,62.88
2023-03-10T14:32:49.417Z,65.19
2023-03-10T14:35:20.217Z,63.93
2023-03-10T14:37:48.140Z,63.90
2023-03-10T14:40:16.340Z,62.67
2023-03-10T14:42:45.171Z,62.72
2023-03-10T14:45:24.364Z,63.92
2023-03-10T14:47:53.709Z,63.89
2023-03-10T14:50:22.448Z,67.42
2023-03-10T14:52:50.179Z,69.87
2023-03-10T14:55:18.431Z,67.45
2023-03-10T14:57:48.326Z,68.85
2023-03-10T15:00:18.488Z,72.02
2023-03-10T15:02:47.015Z,70.90
2023-03-10T15:05:21.595Z,73.66
2023-03-10T15:07:49.640Z,74.92
2023-03-10T15:10:20.048Z,77.80
2023-03-10T15:12:48.982Z,79.71
2023-03-10T15:15:18.174Z,81.42
2023-03-10T15:17:46.305Z,83.44
2023-03-10T15:20:18.088Z,84.38
2023-03-10T15:22:46.337Z,85.18
2023-03-10T15:25:16.372Z,85.64
2023-03-10T15:27:44.561Z,88.85
2023-03-10T15:30:18.321Z,89.92
2023-03-10T15:32:46.336Z,83.70
2023-03-10T15:35:15.704Z,85.58
2023-03-10T15:37:45.443Z,90.01
2023-03-10T15:40:16.396Z,89.60
2023-03-10T15:42:44.272Z,86.02
2023-03-10T15:45:13.307Z,86.17
2023-03-10T15:47:41.082Z,87.40
2023-03-10T15:50:10.658Z,89.08
2023-03-10T15:52:39.713Z,92.51
2023-03-10T15:55:09.937Z,95.45
2023-03-10T15:57:37.700Z,99.23
2023-03-10T16:00:06.947Z,99.25
2023-03-10T16:02:34.748Z,100.00
2023-03-10T16:05:02.597Z,100.00
2023-03-10T16:07:30.337Z,100.00
2023-03-10T16:09:58.122Z,100.00
2023-03-10T16:12:27.747Z,100.00
2023-03-10T16:14:56.490Z,100.00
2023-03-10T16:17:24.594Z,100.00
2023-03-10T16:19:52.377Z,100.00
2023-03-10T16:22:20.095Z,100.00
2023-03-10T16:24:48.073Z,100.00
2023-03-10T16:27:17.262Z,100.00
2023-03-10T16:29:46.572Z,100.00
2023-03-10T16:32:15.025Z,100.00
2023-03-10T16:34:42.901Z,100.00
2023-03-10T16:37:11.533Z,100.00
2023-03-10T16:39:39.365Z,100.00
2023-03-10T16:42:07.506Z,100.00
2023-03-10T16:44:35.218Z,100.00
2023-03-10T16:47:04.373Z,100.00
2023-03-10T16:49:32.684Z,100.00
2023-03-10T16:52:02.861Z,100.00
2023-03-10T16:54:30.745Z,100.00
2023-03-10T16:57:01.336Z,100.00
2023-03-10T16:59:30.060Z,100.00
2023-03-10T17:01:57.840Z,100.00
2023-03-10T17:04:28.112Z,100.00
2023-03-10T17:06:56.038Z,100.00
2023-03-10T17:09:23.805Z,100.00
2023-03-10T17:11:55.094Z,100.00
2023-03-10T17:14:23.726Z,100.00
2023-03-10T17:16:51.841Z,100.00
2023-03-10T17:19:22.537Z,100.00
2023-03-10T17:21:52.267Z,100.00
2023-03-10T17:24:21.323Z,100.00
2023-03-10T17:26:49.099Z,100.00
2023-03-10T17:29:17.026Z,100.00
2023-03-10T17:31:48.914Z,100.00
2023-03-10T17:34:17.277Z,100.00
2023-03-10T17:36:45.882Z,100.00
2023-03-10T17:39:18.880Z,100.00
2023-03-10T17:41:47.209Z,100.00
2023-03-10T17:44:15.120Z,100.00
2023-03-10T17:46:43.224Z,99.24
2023-03-10T17:49:13.178Z,100.00
2023-03-10T17:51:43.621Z,99.20
2023-03-10T17:54:13.191Z,100.00
2023-03-10T17:56:42.698Z,97.97
2023-03-10T17:59:14.222Z,98.73
2023-03-10T18:01:43.673Z,99.95
2023-03-10T18:04:11.811Z,100.00
2023-03-10T18:06:39.652Z,99.78
2023-03-10T18:09:09.254Z,100.00
2023-03-10T18:11:37.019Z,100.00
2023-03-10T18:14:06.832Z,100.00
2023-03-10T18:16:36.860Z,100.00
2023-03-10T18:19:04.954Z,100.00
2023-03-10T18:21:32.723Z,100.00
2023-03-10T18:24:00.503Z,100.00
2023-03-10T18:26:31.378Z,100.00
2023-03-10T18:28:59.650Z,100.00
2023-03-10T18:31:31.274Z,100.00
2023-03-10T18:33:59.445Z,100.00
2023-03-10T18:36:27.440Z,100.00
2023-03-10T18:38:55.478Z,100.00
2023-03-10T18:41:25.280Z,100.00
2023-03-10T18:43:53.244Z,100.00
2023-03-10T18:46:21.211Z,100.00
2023-03-10T18:48:55.359Z,100.00
2023-03-10T18:51:24.813Z,100.00
2023-03-10T18:53:52.942Z,100.00
2023-03-10T18:56:20.767Z,100.00
2023-03-10T18:58:48.552Z,100.00
2023-03-10T19:01:16.455Z,100.00
2023-03-10T19:03:44.208Z,100.00
2023-03-10T19:06:13.642Z,100.00
2023-03-10T19:08:41.598Z,100.00
2023-03-10T19:11:09.645Z,100.00
2023-03-10T19:13:40.380Z,100.00
2023-03-10T19:16:09.414Z,100.00
2023-03-10T19:18:37.474Z,100.00
2023-03-10T19:21:06.090Z,100.00
2023-03-10T19:23:35.187Z,100.00
2023-03-10T19:26:03.340Z,100.00
2023-03-10T19:28:31.526Z,100.00
2023-03-10T19:30:59.363Z,100.00
2023-03-10T19:33:27.328Z,100.00
2023-03-10T19:36:01.416Z,100.00
2023-03-10T19:38:29.203Z,100.00
2023-03-10T19:40:58.487Z,100.00
2023-03-10T19:43:26.280Z,100.00
2023-03-10T19:46:00.447Z,100.00
2023-03-10T19:48:28.344Z,100.00
2023-03-10T19:50:56.800Z,100.00
2023-03-10T19:53:25.651Z,100.00
2023-03-10T19:55:53.781Z,100.00
2023-03-10T19:58:23.756Z,100.00
2023-03-10T20:00:54.508Z,100.00
2023-03-10T20:03:22.322Z,100.00
2023-03-10T20:05:50.158Z,100.00
2023-03-10T20:08:18.115Z,100.00
2023-03-10T20:10:46.461Z,100.00
2023-03-10T20:13:17.151Z,100.00
2023-03-10T20:15:46.246Z,100.00
2023-03-10T20:18:14.005Z,100.00
2023-03-10T20:20:42.212Z,100.00
2023-03-10T20:23:09.980Z,100.00
2023-03-10T20:25:37.755Z,100.00
2023-03-10T20:28:05.515Z,100.00
2023-03-10T20:30:34.029Z,100.00
2023-03-10T20:33:04.072Z,100.00
2023-03-10T20:35:34.006Z,100.00
2023-03-10T20:38:02.133Z,100.00
2023-03-10T20:40:29.981Z,100.00
2023-03-10T20:43:00.364Z,100.00
2023-03-10T20:45:28.920Z,100.00
2023-03-10T20:47:56.739Z,100.00
2023-03-10T20:50:25.878Z,100.00
2023-03-10T20:52:53.912Z,100.00
2023-03-10T20:55:24.048Z,100.00
2023-03-10T20:57:54.007Z,100.00
2023-03-10T21:00:24.584Z,100.00
2023-03-10T21:02:53.774Z,100.00
2023-03-10T21:05:22.152Z,100.00
2023-03-10T21:07:51.571Z,100.00
2023-03-10T21:10:19.418Z,100.00
2023-03-10T21:12:47.345Z,100.00
2023-03-10T21:15:17.088Z,100.00
2023-03-10T21:17:45.346Z,100.00
2023-03-10T21:20:18.538Z,100.00
2023-03-10T21:22:46.970Z,100.00
2023-03-10T21:25:20.165Z,100.00
2023-03-10T21:27:49.487Z,100.00
2023-03-10T21:30:18.346Z,100.00
2023-03-10T21:32:47.039Z,100.00
2023-03-10T21:35:14.790Z,100.00
2023-03-10T21:37:46.807Z,100.00
2023-03-10T21:40:19.689Z,100.00
2023-03-10T21:42:47.989Z,100.00
2023-03-10T21:45:18.662Z,100.00
2023-03-10T21:47:46.629Z,100.00
2023-03-10T21:50:15.085Z,100.00
2023-03-10T21:52:43.011Z,100.00
2023-03-10T21:55:21.127Z,100.00
2023-03-10T21:57:48.887Z,100.00
2023-03-10T22:00:19.372Z,100.00
2023-03-10T22:02:48.233Z,100.00
2023-03-10T22:05:18.039Z,100.00
2023-03-10T22:07:45.807Z,100.00
2023-03-10T22:10:14.959Z,100.00
2023-03-10T22:12:44.532Z,100.00
2023-03-10T22:15:16.782Z,100.00
2023-03-10T22:17:44.539Z,100.00
2023-03-10T22:20:17.023Z,100.00
2023-03-10T22:22:44.857Z,100.00
2023-03-10T22:25:12.855Z,100.00
2023-03-10T22:27:40.643Z,100.00
2023-03-10T22:30:13.940Z,100.00
2023-03-10T22:32:42.115Z,100.00
2023-03-10T22:35:10.699Z,100.00
2023-03-10T22:37:38.776Z,100.00
2023-03-10T22:40:10.491Z,100.00
2023-03-10T22:42:39.048Z,100.00
2023-03-10T22:45:12.223Z,100.00
2023-03-10T22:47:39.959Z,100.00
2023-03-10T22:50:08.688Z,100.00
2023-03-10T22:52:36.474Z,100.00
2023-03-10T22:55:04.219Z,100.00
2023-03-10T22:57:31.945Z,100.00
2023-03-10T22:59:59.677Z,100.00
2023-03-10T23:02:28.790Z,100.00
2023-03-10T23:04:57.288Z,100.00
2023-03-10T23:07:25.016Z,100.00
2023-03-10T23:09:52.730Z,100.00
2023-03-10T23:12:20.455Z,100.00
2023-03-10T23:14:48.240Z,100.00
2023-03-10T23:17:15.996Z,100.00
2023-03-10T23:19:46.240Z,100.00
2023-03-10T23:22:13.959Z,100.00
2023-03-10T23:24:41.705Z,100.00
2023-03-10T23:27:09.397Z,100.00
2023-03-10T23:29:37.176Z,100.00
2023-03-10T23:32:06.044Z,100.00
2023-03-10T23:34:33.766Z,100.00
2023-03-10T23:37:03.038Z,100.00
2023-03-10T23:39:30.755Z,100.00
2023-03-10T23:41:58.454Z,100.00
2023-03-10T23:44:26.258Z,100.00
2023-03-10T23:46:54.656Z,100.00
2023-03-10T23:49:23.325Z,100.00
2023-03-10T23:51:53.200Z,100.00
2023-03-10T23:54:22.855Z,100.00
2023-03-10T23:56:50.983Z,100.00
2023-03-10T23:59:18.812Z,100.00
